createdAt,value
2018-12-27T00:01:13.971Z,82.04
2018-12-27T00:03:41.939Z,81.68
2018-12-27T00:06:09.721Z,82.14
2018-12-27T00:08:37.639Z,82.16
2018-12-27T00:11:05.391Z,81.68
2018-12-27T00:13:33.184Z,81.59
2018-12-27T00:16:01.315Z,81.62
2018-12-27T00:18:29.250Z,81.72
2018-12-27T00:20:57.011Z,81.98
2018-12-27T00:23:24.765Z,81.28
2018-12-27T00:25:52.537Z,81.26
2018-12-27T00:28:20.373Z,80.88
2018-12-27T00:30:48.161Z,80.94
2018-12-27T00:33:15.909Z,80.85
2018-12-27T00:35:43.656Z,81.14
2018-12-27T00:38:11.439Z,81.80
2018-12-27T00:40:39.182Z,81.19
2018-12-27T00:43:07.119Z,81.66
2018-12-27T00:45:34.863Z,81.87
2018-12-27T00:48:02.630Z,81.95
2018-12-27T00:50:30.341Z,82.28
2018-12-27T00:52:58.187Z,82.99
2018-12-27T00:55:25.937Z,83.27
2018-12-27T00:57:53.916Z,83.62
2018-12-27T01:00:24.075Z,83.76
2018-12-27T01:02:51.618Z,83.71
2018-12-27T01:05:19.366Z,82.98
2018-12-27T01:07:49.496Z,82.61
2018-12-27T01:10:17.244Z,82.70
2018-12-27T01:12:45.254Z,83.07
2018-12-27T01:15:13.008Z,83.41
2018-12-27T01:17:43.605Z,83.32
2018-12-27T01:20:11.479Z,83.12
2018-12-27T01:22:39.506Z,82.57
2018-12-27T01:25:07.439Z,82.80
2018-12-27T01:27:35.707Z,83.29
2018-12-27T01:30:03.479Z,83.04
2018-12-27T01:32:31.402Z,82.92
2018-12-27T01:34:59.453Z,83.40
2018-12-27T01:37:27.226Z,82.97
2018-12-27T01:39:55.010Z,83.40
2018-12-27T01:42:22.754Z,82.96
2018-12-27T01:44:50.522Z,82.67
2018-12-27T01:47:18.298Z,82.14
2018-12-27T01:49:46.211Z,82.18
2018-12-27T01:52:13.992Z,82.37
2018-12-27T01:54:41.722Z,82.73
2018-12-27T01:57:09.496Z,82.91
2018-12-27T01:59:37.264Z,81.90
2018-12-27T02:02:05.023Z,82.08
2018-12-27T02:04:32.768Z,82.09
2018-12-27T02:07:00.528Z,81.89
2018-12-27T02:09:28.317Z,81.65
2018-12-27T02:11:56.057Z,81.68
2018-12-27T02:14:23.723Z,82.20
2018-12-27T02:16:51.473Z,81.75
2018-12-27T02:19:19.413Z,81.78
2018-12-27T02:21:47.095Z,81.46
2018-12-27T02:24:15.014Z,81.63
2018-12-27T02:26:42.757Z,81.61
2018-12-27T02:29:10.518Z,81.83
2018-12-27T02:31:38.285Z,82.09
2018-12-27T02:34:08.610Z,82.15
2018-12-27T02:36:36.347Z,82.13
2018-12-27T02:39:06.491Z,82.22
2018-12-27T02:41:34.236Z,82.73
2018-12-27T02:44:02.177Z,82.40
2018-12-27T02:46:33.063Z,82.04
2018-12-27T02:49:00.827Z,81.91
2018-12-27T02:51:28.579Z,82.37
2018-12-27T02:53:56.555Z,82.17
2018-12-27T02:56:24.273Z,82.44
2018-12-27T02:58:52.280Z,82.49
2018-12-27T03:01:20.034Z,82.38
2018-12-27T03:03:47.686Z,82.34
2018-12-27T03:06:15.459Z,82.84
2018-12-27T03:08:43.429Z,83.18
2018-12-27T03:11:14.296Z,82.65
2018-12-27T03:13:42.095Z,82.65
2018-12-27T03:16:12.016Z,82.57
2018-12-27T03:18:39.796Z,83.34
2018-12-27T03:21:07.781Z,83.28
2018-12-27T03:23:35.554Z,82.25
2018-12-27T03:26:03.338Z,81.64
2018-12-27T03:28:31.088Z,82.41
2018-12-27T03:30:59.048Z,82.71
2018-12-27T03:33:26.827Z,82.20
2018-12-27T03:35:54.754Z,82.38
2018-12-27T03:38:22.463Z,82.34
2018-12-27T03:40:50.200Z,82.13
2018-12-27T03:43:18.017Z,82.19
2018-12-27T03:45:45.857Z,82.11
2018-12-27T03:48:14.801Z,82.77
2018-12-27T03:50:44.438Z,82.35
2018-12-27T03:53:12.201Z,82.41
2018-12-27T03:55:39.956Z,82.25
2018-12-27T03:58:07.908Z,82.50
2018-12-27T04:00:35.724Z,82.79
2018-12-27T04:03:03.511Z,82.56
2018-12-27T04:05:31.569Z,82.53
2018-12-27T04:07:59.487Z,81.90
2018-12-27T04:10:27.328Z,82.34
2018-12-27T04:12:55.109Z,82.71
2018-12-27T04:15:22.869Z,82.34
2018-12-27T04:17:53.742Z,81.64
2018-12-27T04:20:21.666Z,81.35
2018-12-27T04:22:49.616Z,81.55
2018-12-27T04:25:17.538Z,81.65
2018-12-27T04:27:45.314Z,81.36
2018-12-27T04:30:13.099Z,82.13
2018-12-27T04:32:42.582Z,82.29
2018-12-27T04:35:10.881Z,81.89
2018-12-27T04:37:38.830Z,81.72
2018-12-27T04:40:06.638Z,81.58
2018-12-27T04:42:35.628Z,81.64
2018-12-27T04:45:03.627Z,81.90
2018-12-27T04:47:31.549Z,81.58
2018-12-27T04:49:59.316Z,81.55
2018-12-27T04:52:27.078Z,82.19
2018-12-27T04:54:54.966Z,82.13
2018-12-27T04:57:22.891Z,81.75
2018-12-27T04:59:50.660Z,81.77
2018-12-27T05:02:18.596Z,81.70
2018-12-27T05:04:46.380Z,81.37
2018-12-27T05:07:14.102Z,81.82
2018-12-27T05:09:41.940Z,81.55
2018-12-27T05:12:09.681Z,81.34
2018-12-27T05:14:37.434Z,81.25
2018-12-27T05:17:05.152Z,81.34
2018-12-27T05:19:32.980Z,81.13
2018-12-27T05:22:01.734Z,80.78
2018-12-27T05:24:29.514Z,80.70
2018-12-27T05:26:57.446Z,80.79
2018-12-27T05:29:25.275Z,80.84
2018-12-27T05:31:53.196Z,80.52
2018-12-27T05:34:26.298Z,80.68
2018-12-27T05:36:53.088Z,81.06
2018-12-27T05:39:23.120Z,80.78
2018-12-27T05:41:50.994Z,80.84
2018-12-27T05:44:19.597Z,80.20
2018-12-27T05:46:47.513Z,80.52
2018-12-27T05:49:16.784Z,80.71
2018-12-27T05:51:44.993Z,80.53
2018-12-27T05:54:12.962Z,80.91
2018-12-27T05:56:40.899Z,81.29
2018-12-27T05:59:08.882Z,81.09
2018-12-27T06:01:36.655Z,80.79
2018-12-27T06:04:04.456Z,80.22
2018-12-27T06:06:33.201Z,80.78
2018-12-27T06:09:01.289Z,80.77
2018-12-27T06:11:29.213Z,80.69
2018-12-27T06:14:00.164Z,80.50
2018-12-27T06:16:27.959Z,80.51
2018-12-27T06:18:55.765Z,80.75
2018-12-27T06:21:23.553Z,80.86
2018-12-27T06:23:51.290Z,80.56
2018-12-27T06:26:19.067Z,81.12
2018-12-27T06:28:47.398Z,80.97
2018-12-27T06:31:15.186Z,81.21
2018-12-27T06:33:43.133Z,80.89
2018-12-27T06:36:10.936Z,80.54
2018-12-27T06:38:38.882Z,80.42
2018-12-27T06:41:06.667Z,80.39
2018-12-27T06:43:34.476Z,80.35
2018-12-27T06:46:02.264Z,80.71
2018-12-27T06:48:30.175Z,80.88
2018-12-27T06:50:57.981Z,81.27
2018-12-27T06:53:25.744Z,80.99
2018-12-27T06:55:53.524Z,80.42
2018-12-27T06:58:21.455Z,80.57
2018-12-27T07:00:49.262Z,81.14
2018-12-27T07:03:17.217Z,81.75
2018-12-27T07:05:44.962Z,81.82
2018-12-27T07:08:12.942Z,81.30
2018-12-27T07:10:40.766Z,81.50
2018-12-27T07:13:08.493Z,81.18
2018-12-27T07:15:36.266Z,81.05
2018-12-27T07:18:04.091Z,81.13
2018-12-27T07:20:32.076Z,81.10
2018-12-27T07:23:00.090Z,81.36
2018-12-27T07:25:27.884Z,81.21
2018-12-27T07:27:55.649Z,81.03
2018-12-27T07:30:23.421Z,81.71
2018-12-27T07:32:51.173Z,81.88
2018-12-27T07:35:19.399Z,81.47
2018-12-27T07:37:47.191Z,81.33
2018-12-27T07:40:15.003Z,81.59
2018-12-27T07:42:43.007Z,81.51
2018-12-27T07:45:10.839Z,81.45
2018-12-27T07:47:38.645Z,81.92
2018-12-27T07:50:07.009Z,81.35
2018-12-27T07:52:34.783Z,81.33
2018-12-27T07:55:02.775Z,81.44
2018-12-27T07:57:32.541Z,81.58
2018-12-27T08:00:00.279Z,81.26
2018-12-27T08:02:28.063Z,80.67
2018-12-27T08:04:56.007Z,80.75
2018-12-27T08:07:23.765Z,80.45
2018-12-27T08:09:51.585Z,80.75
2018-12-27T08:12:19.372Z,80.69
2018-12-27T08:14:48.518Z,80.71
2018-12-27T08:17:16.291Z,80.69
2018-12-27T08:19:44.297Z,80.09
2018-12-27T08:22:12.009Z,79.46
2018-12-27T08:24:40.018Z,79.36
2018-12-27T08:27:08.113Z,79.11
2018-12-27T08:29:36.780Z,79.21
2018-12-27T08:32:04.543Z,78.88
2018-12-27T08:34:32.378Z,78.74
2018-12-27T08:37:00.104Z,78.76
2018-12-27T08:39:27.842Z,78.98
2018-12-27T08:41:55.686Z,79.20
2018-12-27T08:44:23.652Z,79.76
2018-12-27T08:46:51.382Z,79.41
2018-12-27T08:49:22.114Z,79.89
2018-12-27T08:51:50.132Z,79.79
2018-12-27T08:54:18.044Z,79.60
2018-12-27T08:56:46.068Z,80.35
2018-12-27T08:59:14.220Z,80.20
2018-12-27T09:01:42.116Z,80.68
2018-12-27T09:04:10.100Z,80.64
2018-12-27T09:06:37.891Z,80.64
2018-12-27T09:09:07.504Z,81.19
2018-12-27T09:11:35.474Z,81.19
2018-12-27T09:14:03.239Z,81.01
2018-12-27T09:16:31.994Z,80.48
2018-12-27T09:18:59.748Z,79.76
2018-12-27T09:21:27.728Z,79.01
2018-12-27T09:23:55.503Z,75.44
2018-12-27T09:26:23.527Z,61.36
2018-12-27T09:28:51.594Z,50.74
2018-12-27T09:31:19.412Z,49.18
2018-12-27T09:33:47.476Z,46.39
2018-12-27T09:36:15.424Z,44.17
2018-12-27T09:38:45.647Z,42.64
2018-12-27T09:41:13.518Z,40.12
2018-12-27T09:43:41.357Z,36.71
2018-12-27T09:46:09.312Z,35.29
2018-12-27T09:48:37.168Z,34.78
2018-12-27T09:51:06.474Z,34.13
2018-12-27T09:53:34.298Z,32.65
2018-12-27T09:56:02.229Z,30.61
2018-12-27T09:58:30.080Z,29.11
2018-12-27T10:00:58.117Z,28.00
2018-12-27T10:03:25.918Z,26.12
2018-12-27T10:05:53.912Z,25.55
2018-12-27T10:08:21.776Z,25.24
2018-12-27T10:10:49.794Z,24.48
2018-12-27T10:13:18.363Z,24.66
2018-12-27T10:15:47.281Z,25.26
2018-12-27T10:18:15.057Z,27.06
2018-12-27T10:20:42.935Z,26.03
2018-12-27T10:23:13.132Z,25.28
2018-12-27T10:25:42.985Z,24.21
2018-12-27T10:28:12.497Z,22.29
2018-12-27T10:30:40.241Z,22.09
2018-12-27T10:33:08.347Z,23.18
2018-12-27T10:35:41.154Z,24.15
2018-12-27T10:38:07.132Z,21.73
2018-12-27T10:40:35.081Z,21.00
2018-12-27T10:43:02.862Z,21.08
2018-12-27T10:45:30.750Z,21.66
2018-12-27T10:47:58.843Z,21.23
2018-12-27T10:50:26.872Z,21.40
2018-12-27T10:52:54.678Z,20.64
2018-12-27T10:55:22.541Z,19.71
2018-12-27T10:57:50.326Z,21.95
2018-12-27T11:00:18.215Z,25.38
2018-12-27T11:02:46.194Z,27.69
2018-12-27T11:05:14.121Z,30.49
2018-12-27T11:07:41.868Z,29.78
2018-12-27T11:10:11.895Z,28.83
2018-12-27T11:12:39.888Z,28.39
2018-12-27T11:15:07.657Z,27.07
2018-12-27T11:17:35.534Z,23.53
2018-12-27T11:20:03.606Z,21.35
2018-12-27T11:22:31.439Z,20.04
2018-12-27T11:24:59.211Z,19.44
2018-12-27T11:27:27.124Z,19.49
2018-12-27T11:29:55.166Z,18.50
2018-12-27T11:32:22.932Z,18.81
2018-12-27T11:34:53.513Z,18.52
2018-12-27T11:37:21.537Z,18.94
2018-12-27T11:39:51.387Z,17.76
2018-12-27T11:42:19.504Z,17.48
2018-12-27T11:44:47.431Z,16.77
2018-12-27T11:47:15.345Z,16.10
2018-12-27T11:49:43.172Z,17.45
2018-12-27T11:52:11.157Z,18.32
2018-12-27T11:54:41.368Z,18.96
2018-12-27T11:57:09.290Z,18.63
2018-12-27T11:59:37.057Z,18.08
2018-12-27T12:02:04.916Z,17.26
2018-12-27T12:04:33.369Z,17.26
2018-12-27T12:07:01.201Z,20.08
2018-12-27T12:09:29.063Z,24.20
2018-12-27T12:12:02.024Z,27.21
2018-12-27T12:14:29.891Z,29.69
2018-12-27T12:16:57.705Z,32.72
2018-12-27T12:19:25.529Z,34.87
2018-12-27T12:21:53.437Z,37.48
2018-12-27T12:24:21.283Z,39.38
2018-12-27T12:26:49.067Z,40.04
2018-12-27T12:29:16.885Z,41.29
2018-12-27T12:31:45.053Z,42.98
2018-12-27T12:34:12.855Z,45.00
2018-12-27T12:36:41.501Z,44.93
2018-12-27T12:39:09.227Z,45.18
2018-12-27T12:41:37.351Z,45.13
2018-12-27T12:44:05.191Z,45.93
2018-12-27T12:46:33.012Z,46.37
2018-12-27T12:49:00.919Z,47.17
2018-12-27T12:51:28.682Z,47.52
2018-12-27T12:53:56.504Z,47.85
2018-12-27T12:56:24.298Z,48.43
2018-12-27T12:58:52.146Z,48.12
2018-12-27T13:01:19.880Z,47.86
2018-12-27T13:03:47.662Z,46.34
2018-12-27T13:06:18.101Z,45.89
2018-12-27T13:08:45.288Z,45.77
2018-12-27T13:11:13.123Z,46.64
2018-12-27T13:13:41.168Z,46.56
2018-12-27T13:16:08.901Z,47.07
2018-12-27T13:18:36.712Z,47.60
2018-12-27T13:21:04.746Z,47.91
2018-12-27T13:23:32.583Z,48.56
2018-12-27T13:26:00.391Z,49.30
2018-12-27T13:28:28.556Z,49.34
2018-12-27T13:30:56.505Z,49.36
2018-12-27T13:33:24.285Z,48.27
2018-12-27T13:35:52.085Z,47.91
2018-12-27T13:38:19.882Z,48.16
2018-12-27T13:40:47.683Z,48.17
2018-12-27T13:43:15.493Z,48.24
2018-12-27T13:45:43.478Z,48.75
2018-12-27T13:48:13.271Z,49.36
2018-12-27T13:50:42.443Z,49.87
2018-12-27T13:53:10.244Z,49.39
2018-12-27T13:55:38.036Z,48.54
2018-12-27T13:58:07.643Z,48.86
2018-12-27T14:00:35.437Z,49.32
2018-12-27T14:03:03.226Z,49.51
2018-12-27T14:05:31.014Z,50.05
2018-12-27T14:07:58.909Z,50.18
2018-12-27T14:10:26.702Z,50.66
2018-12-27T14:12:54.515Z,51.21
2018-12-27T14:15:22.272Z,51.45
2018-12-27T14:17:50.358Z,52.32
2018-12-27T14:20:18.118Z,52.56
2018-12-27T14:22:45.921Z,52.29
2018-12-27T14:25:13.702Z,52.74
2018-12-27T14:27:41.622Z,53.30
2018-12-27T14:30:09.611Z,53.79
2018-12-27T14:32:38.607Z,53.79
2018-12-27T14:35:06.631Z,54.67
2018-12-27T14:37:34.474Z,54.66
2018-12-27T14:40:02.804Z,54.95
2018-12-27T14:42:30.634Z,55.43
2018-12-27T14:44:58.424Z,55.77
2018-12-27T14:47:26.489Z,55.76
2018-12-27T14:49:54.442Z,56.70
2018-12-27T14:52:25.218Z,57.21
2018-12-27T14:54:53.010Z,58.15
2018-12-27T14:57:20.772Z,58.51
2018-12-27T14:59:51.596Z,58.50
2018-12-27T15:02:19.444Z,59.24
2018-12-27T15:04:47.382Z,59.60
2018-12-27T15:07:15.944Z,60.02
2018-12-27T15:09:44.848Z,60.26
2018-12-27T15:12:12.714Z,60.84
2018-12-27T15:14:40.847Z,60.87
2018-12-27T15:17:08.884Z,60.31
2018-12-27T15:19:36.879Z,59.89
2018-12-27T15:22:04.910Z,59.87
2018-12-27T15:24:32.820Z,60.33
2018-12-27T15:27:02.074Z,60.08
2018-12-27T15:29:30.028Z,59.99
2018-12-27T15:31:58.482Z,59.66
2018-12-27T15:34:26.352Z,59.66
2018-12-27T15:36:54.534Z,60.02
2018-12-27T15:39:22.487Z,59.82
2018-12-27T15:41:50.485Z,60.06
2018-12-27T15:44:18.300Z,60.34
2018-12-27T15:46:46.642Z,60.76
2018-12-27T15:49:14.556Z,61.14
2018-12-27T15:51:42.393Z,61.70
2018-12-27T15:54:10.190Z,61.54
2018-12-27T15:56:38.155Z,60.94
2018-12-27T15:59:06.049Z,61.25
2018-12-27T16:01:34.067Z,61.50
2018-12-27T16:04:01.949Z,62.08
2018-12-27T16:06:29.701Z,62.23
2018-12-27T16:08:57.557Z,62.18
2018-12-27T16:11:25.289Z,62.02
2018-12-27T16:13:53.297Z,61.84
2018-12-27T16:16:21.350Z,61.88
2018-12-27T16:18:49.117Z,62.17
2018-12-27T16:21:18.455Z,61.79
2018-12-27T16:23:46.563Z,61.25
2018-12-27T16:26:14.489Z,61.18
2018-12-27T16:28:47.568Z,60.93
2018-12-27T16:31:25.425Z,61.13
2018-12-27T16:33:53.203Z,61.47
2018-12-27T16:36:21.522Z,61.68
2018-12-27T16:38:50.611Z,62.14
2018-12-27T16:41:18.352Z,61.70
2018-12-27T16:43:46.396Z,61.45
2018-12-27T16:46:14.160Z,61.56
2018-12-27T16:48:41.982Z,61.59
2018-12-27T16:51:11.827Z,61.67
2018-12-27T16:53:44.996Z,61.69
2018-12-27T16:56:12.757Z,61.92
2018-12-27T16:58:40.581Z,62.19
2018-12-27T17:01:08.364Z,62.65
2018-12-27T17:03:36.560Z,62.72
2018-12-27T17:06:04.463Z,62.76
2018-12-27T17:08:35.623Z,62.42
2018-12-27T17:11:03.493Z,62.28
2018-12-27T17:13:31.860Z,62.07
2018-12-27T17:15:59.866Z,62.00
2018-12-27T17:18:30.197Z,62.06
2018-12-27T17:20:59.593Z,62.31
2018-12-27T17:23:27.635Z,62.96
2018-12-27T17:26:01.479Z,63.34
2018-12-27T17:28:32.870Z,63.59
2018-12-27T17:31:03.881Z,62.99
2018-12-27T17:33:40.752Z,62.97
2018-12-27T17:36:08.735Z,62.28
2018-12-27T17:38:39.172Z,62.29
2018-12-27T17:41:16.662Z,62.50
2018-12-27T17:43:44.660Z,62.65
2018-12-27T17:46:15.661Z,63.29
2018-12-27T17:48:43.692Z,62.92
2018-12-27T17:51:12.288Z,62.94
2018-12-27T17:53:47.536Z,62.41
2018-12-27T17:56:17.570Z,61.95
2018-12-27T17:58:45.350Z,63.48
2018-12-27T18:01:13.322Z,62.75
2018-12-27T18:03:41.254Z,63.28
2018-12-27T18:06:09.366Z,63.66
2018-12-27T18:08:37.504Z,63.11
2018-12-27T18:11:05.686Z,62.30
2018-12-27T18:13:33.777Z,62.65
2018-12-27T18:16:01.550Z,63.06
2018-12-27T18:18:29.338Z,62.90
2018-12-27T18:20:57.124Z,62.15
2018-12-27T18:23:25.018Z,61.81
2018-12-27T18:25:52.835Z,61.70
2018-12-27T18:28:20.799Z,61.66
2018-12-27T18:30:48.667Z,61.87
2018-12-27T18:33:16.536Z,62.13
2018-12-27T18:35:44.383Z,62.11
2018-12-27T18:38:12.526Z,62.33
2018-12-27T18:40:40.318Z,62.28
2018-12-27T18:43:08.351Z,62.33
2018-12-27T18:45:36.124Z,62.25
2018-12-27T18:48:04.480Z,61.77
2018-12-27T18:50:32.224Z,61.64
2018-12-27T18:53:00.309Z,62.31
2018-12-27T18:55:28.091Z,62.73
2018-12-27T18:57:55.956Z,62.95
2018-12-27T19:00:23.933Z,62.97
2018-12-27T19:02:51.861Z,63.41
2018-12-27T19:05:19.865Z,64.00
2018-12-27T19:07:47.697Z,64.17
2018-12-27T19:10:15.489Z,64.41
2018-12-27T19:13:09.428Z,64.31
2018-12-27T19:16:05.966Z,64.25
2018-12-27T19:18:44.119Z,64.26
2018-12-27T19:21:44.027Z,64.11
2018-12-27T19:24:12.082Z,64.03
2018-12-27T19:26:40.007Z,64.00
2018-12-27T19:29:07.918Z,63.90
2018-12-27T19:31:35.729Z,63.90
2018-12-27T19:34:03.631Z,64.30
2018-12-27T19:36:33.528Z,64.33
2018-12-27T19:39:01.554Z,64.58
2018-12-27T19:41:29.478Z,64.77
2018-12-27T19:43:57.459Z,64.29
2018-12-27T19:46:25.319Z,64.53
2018-12-27T19:48:53.259Z,64.87
2018-12-27T19:51:21.250Z,65.05
2018-12-27T19:53:49.041Z,65.34
2018-12-27T19:56:16.787Z,65.48
2018-12-27T19:58:44.736Z,65.59
2018-12-27T20:01:12.500Z,65.72
2018-12-27T20:03:40.454Z,65.74
2018-12-27T20:06:08.310Z,65.37
2018-12-27T20:08:36.410Z,65.56
2018-12-27T20:11:04.157Z,65.58
2018-12-27T20:13:32.229Z,65.13
2018-12-27T20:16:03.197Z,64.82
2018-12-27T20:18:30.956Z,63.96
2018-12-27T20:20:59.848Z,63.58
2018-12-27T20:23:27.715Z,63.51
2018-12-27T20:25:55.506Z,63.16
2018-12-27T20:28:23.452Z,63.16
2018-12-27T20:30:51.250Z,62.93
2018-12-27T20:33:19.016Z,63.28
2018-12-27T20:35:46.932Z,63.21
2018-12-27T20:38:14.728Z,63.27
2018-12-27T20:40:42.516Z,63.45
2018-12-27T20:43:10.362Z,63.85
2018-12-27T20:45:38.348Z,65.08
2018-12-27T20:48:06.130Z,65.11
2018-12-27T20:50:34.033Z,65.17
2018-12-27T20:53:02.018Z,65.54
2018-12-27T20:55:29.760Z,65.98
2018-12-27T20:57:57.782Z,66.21
2018-12-27T21:00:25.614Z,66.61
2018-12-27T21:02:53.647Z,66.94
2018-12-27T21:05:21.907Z,67.31
2018-12-27T21:07:49.805Z,67.30
2018-12-27T21:10:17.574Z,67.79
2018-12-27T21:12:45.819Z,68.18
2018-12-27T21:15:13.855Z,68.44
2018-12-27T21:17:41.688Z,68.65
2018-12-27T21:20:09.766Z,68.78
2018-12-27T21:22:37.727Z,68.99
2018-12-27T21:25:05.596Z,68.93
2018-12-27T21:27:33.665Z,68.78
2018-12-27T21:30:01.487Z,69.16
2018-12-27T21:32:29.735Z,69.36
2018-12-27T21:34:57.781Z,69.46
2018-12-27T21:37:25.744Z,69.44
2018-12-27T21:39:53.565Z,69.57
2018-12-27T21:42:21.325Z,69.13
2018-12-27T21:44:50.431Z,69.21
2018-12-27T21:47:18.310Z,69.04
2018-12-27T21:49:46.097Z,69.29
2018-12-27T21:52:14.204Z,69.24
2018-12-27T21:54:41.923Z,69.34
2018-12-27T21:57:10.137Z,69.38
2018-12-27T21:59:38.059Z,69.56
2018-12-27T22:02:05.822Z,69.50
2018-12-27T22:04:33.881Z,69.02
2018-12-27T22:07:04.876Z,69.53
2018-12-27T22:09:32.641Z,69.54
2018-12-27T22:12:00.649Z,69.13
2018-12-27T22:14:28.537Z,68.79
2018-12-27T22:16:56.714Z,68.72
2018-12-27T22:19:24.549Z,68.69
2018-12-27T22:21:52.557Z,68.76
2018-12-27T22:24:20.491Z,69.06
2018-12-27T22:26:48.732Z,69.24
2018-12-27T22:29:16.579Z,69.37
2018-12-27T22:31:44.593Z,69.32
2018-12-27T22:34:12.686Z,69.30
2018-12-27T22:36:40.558Z,69.33
2018-12-27T22:39:08.480Z,69.09
2018-12-27T22:41:36.456Z,69.17
2018-12-27T22:44:04.366Z,68.92
2018-12-27T22:46:32.271Z,68.83
2018-12-27T22:49:00.060Z,68.79
2018-12-27T22:51:27.827Z,69.05
2018-12-27T22:53:55.786Z,69.01
2018-12-27T22:56:23.586Z,68.56
2018-12-27T22:58:51.499Z,68.51
2018-12-27T23:01:19.698Z,68.62
2018-12-27T23:03:47.807Z,68.50
2018-12-27T23:06:15.877Z,68.17
2018-12-27T23:08:43.843Z,67.83
2018-12-27T23:11:11.592Z,67.98
2018-12-27T23:13:39.606Z,67.94
2018-12-27T23:16:08.164Z,68.21
2018-12-27T23:18:35.927Z,68.61
2018-12-27T23:21:03.986Z,68.89
2018-12-27T23:23:31.893Z,69.25
2018-12-27T23:25:59.860Z,69.72
2018-12-27T23:28:27.699Z,70.40
2018-12-27T23:30:55.460Z,70.56
2018-12-27T23:33:23.457Z,70.94
2018-12-27T23:35:51.253Z,71.31
2018-12-27T23:38:19.491Z,71.52
2018-12-27T23:40:47.347Z,71.42
2018-12-27T23:43:15.287Z,71.56
2018-12-27T23:45:43.182Z,71.90
2018-12-27T23:48:11.153Z,72.17
2018-12-27T23:50:39.235Z,72.02
2018-12-27T23:53:07.255Z,72.33
2018-12-27T23:55:35.413Z,72.64
2018-12-27T23:58:03.182Z,72.52
